createdAt,value
2022-08-29T00:00:18.597Z,2.20
2022-08-29T00:02:49.393Z,2.33
2022-08-29T00:07:53.927Z,2.70
2022-08-29T00:10:23.346Z,2.03
2022-08-29T00:12:51.782Z,2.42
2022-08-29T00:15:21.357Z,2.40
2022-08-29T00:17:50.078Z,2.30
2022-08-29T00:20:34.064Z,2.55
2022-08-29T00:23:03.704Z,2.20
2022-08-29T00:25:32.611Z,2.55
2022-08-29T00:28:01.234Z,2.38
2022-08-29T00:30:29.692Z,2.60
2022-08-29T00:32:58.163Z,2.60
2022-08-29T00:35:31.627Z,2.20
2022-08-29T00:38:00.256Z,2.58
2022-08-29T00:40:33.267Z,2.63
2022-08-29T00:43:02.425Z,2.40
2022-08-29T00:45:31.607Z,2.38
2022-08-29T00:48:04.680Z,2.20
2022-08-29T00:50:38.916Z,2.22
2022-08-29T00:53:13.398Z,2.40
2022-08-29T00:55:42.517Z,2.20
2022-08-29T00:58:26.741Z,2.40
2022-08-29T01:00:55.539Z,2.28
2022-08-29T01:03:23.863Z,2.40
2022-08-29T01:05:53.687Z,2.20
2022-08-29T01:08:22.094Z,2.23
2022-08-29T01:11:08.231Z,2.08
2022-08-29T01:13:42.794Z,2.47
2022-08-29T01:16:13.836Z,2.28
2022-08-29T01:18:47.362Z,2.30
2022-08-29T01:21:23.829Z,2.28
2022-08-29T01:24:02.618Z,2.35
2022-08-29T01:26:33.387Z,2.38
2022-08-29T01:29:01.920Z,2.10
2022-08-29T01:31:56.657Z,2.65
2022-08-29T01:34:27.589Z,2.42
2022-08-29T01:36:59.282Z,2.40
2022-08-29T01:39:31.951Z,2.38
2022-08-29T01:42:10.548Z,2.30
2022-08-29T01:44:41.328Z,2.70
2022-08-29T01:47:11.377Z,2.38
2022-08-29T01:49:40.715Z,2.35
2022-08-29T01:52:09.906Z,2.45
2022-08-29T01:54:38.270Z,2.45
2022-08-29T01:57:12.803Z,2.30
2022-08-29T01:59:43.038Z,2.30
2022-08-29T02:02:17.535Z,2.50
2022-08-29T02:04:47.379Z,2.28
2022-08-29T02:07:18.467Z,2.50
2022-08-29T02:09:47.605Z,2.30
2022-08-29T02:12:20.540Z,2.45
2022-08-29T02:14:50.719Z,2.60
2022-08-29T02:17:19.411Z,2.75
2022-08-29T02:19:47.756Z,2.40
2022-08-29T02:22:16.712Z,2.75
2022-08-29T02:24:45.148Z,2.63
2022-08-29T02:27:13.478Z,2.50
2022-08-29T02:29:43.188Z,2.63
2022-08-29T02:32:14.329Z,2.33
2022-08-29T02:34:44.732Z,2.50
2022-08-29T02:37:16.551Z,2.40
2022-08-29T02:39:44.928Z,2.30
2022-08-29T02:42:13.279Z,2.15
2022-08-29T02:44:43.013Z,2.50
2022-08-29T02:47:11.258Z,2.63
2022-08-29T02:49:39.667Z,2.67
2022-08-29T02:52:08.669Z,2.90
2022-08-29T02:54:37.583Z,2.50
2022-08-29T02:57:07.056Z,2.25
2022-08-29T02:59:35.467Z,2.70
2022-08-29T03:02:05.577Z,2.50
2022-08-29T03:04:33.967Z,2.50
2022-08-29T03:07:02.387Z,2.78
2022-08-29T03:09:30.775Z,2.33
2022-08-29T03:11:59.078Z,2.50
2022-08-29T03:14:27.639Z,2.30
2022-08-29T03:16:55.901Z,2.50
2022-08-29T03:19:26.131Z,2.42
2022-08-29T03:21:54.475Z,2.30
2022-08-29T03:24:26.270Z,2.30
2022-08-29T03:26:57.174Z,2.20
2022-08-29T03:29:27.497Z,2.30
2022-08-29T03:31:58.293Z,2.22
2022-08-29T03:34:29.220Z,2.42
2022-08-29T03:36:57.895Z,2.42
2022-08-29T03:39:26.615Z,2.70
2022-08-29T03:41:55.193Z,2.45
2022-08-29T03:44:24.399Z,2.38
2022-08-29T03:46:52.706Z,2.53
2022-08-29T03:49:21.047Z,2.30
2022-08-29T03:51:51.007Z,2.58
2022-08-29T03:54:19.421Z,2.53
2022-08-29T03:56:48.412Z,2.55
2022-08-29T03:59:17.742Z,2.53
2022-08-29T04:01:48.059Z,2.40
2022-08-29T04:04:37.397Z,2.40
2022-08-29T04:07:08.821Z,2.60
2022-08-29T04:09:38.474Z,2.42
2022-08-29T04:12:07.442Z,2.47
2022-08-29T04:14:36.256Z,2.65
2022-08-29T04:17:05.067Z,2.30
2022-08-29T04:19:35.267Z,2.47
2022-08-29T04:22:04.045Z,2.40
2022-08-29T04:24:35.052Z,2.53
2022-08-29T04:27:03.669Z,2.40
2022-08-29T04:29:34.544Z,2.55
2022-08-29T04:32:03.095Z,2.50
2022-08-29T04:34:32.082Z,2.72
2022-08-29T04:37:01.191Z,2.63
2022-08-29T04:39:29.675Z,2.67
2022-08-29T04:41:59.346Z,2.88
2022-08-29T04:44:27.671Z,2.40
2022-08-29T04:46:56.001Z,2.60
2022-08-29T04:49:24.366Z,3.45
2022-08-29T04:51:54.673Z,2.92
2022-08-29T04:54:23.272Z,2.63
2022-08-29T04:56:51.603Z,2.55
2022-08-29T04:59:27.011Z,2.67
2022-08-29T05:01:56.610Z,2.60
2022-08-29T05:04:25.191Z,2.60
2022-08-29T05:06:53.641Z,2.60
2022-08-29T05:09:23.258Z,2.40
2022-08-29T05:11:51.730Z,2.33
2022-08-29T05:14:20.063Z,2.60
2022-08-29T05:16:49.739Z,2.40
2022-08-29T05:19:18.069Z,2.85
2022-08-29T05:21:46.345Z,2.35
2022-08-29T05:24:17.654Z,2.35
2022-08-29T05:26:46.908Z,2.35
2022-08-29T05:29:15.401Z,2.60
2022-08-29T05:31:45.683Z,3.00
2022-08-29T05:34:34.206Z,2.45
2022-08-29T05:37:05.803Z,2.20
2022-08-29T05:42:04.023Z,2.47
2022-08-29T05:44:35.395Z,2.17
2022-08-29T05:47:05.421Z,2.20
2022-08-29T05:49:37.954Z,2.33
2022-08-29T05:52:07.470Z,2.55
2022-08-29T05:54:39.401Z,2.63
2022-08-29T05:57:09.807Z,2.40
2022-08-29T05:59:39.275Z,2.40
2022-08-29T06:02:10.103Z,2.60
2022-08-29T06:04:40.826Z,2.30
2022-08-29T06:09:41.354Z,2.22
2022-08-29T06:12:11.205Z,2.35
2022-08-29T06:14:40.358Z,2.20
2022-08-29T06:17:10.018Z,2.30
2022-08-29T06:19:39.995Z,2.20
2022-08-29T06:22:10.703Z,4.60
2022-08-29T06:27:13.197Z,2.25
2022-08-29T06:29:43.448Z,2.25
2022-08-29T06:34:42.359Z,2.20
2022-08-29T06:37:11.028Z,2.38
2022-08-29T06:39:39.837Z,2.28
2022-08-29T06:42:08.508Z,2.35
2022-08-29T06:44:39.235Z,2.20
2022-08-29T06:47:09.591Z,2.30
2022-08-29T06:49:37.839Z,2.17
2022-08-29T06:52:07.847Z,2.40
2022-08-29T06:54:36.172Z,2.78
2022-08-29T06:57:04.641Z,3.28
2022-08-29T06:59:33.151Z,2.25
2022-08-29T07:02:01.490Z,3.08
2022-08-29T07:04:30.986Z,2.40
2022-08-29T07:06:59.279Z,2.60
2022-08-29T07:09:31.007Z,2.45
2022-08-29T07:11:59.380Z,2.35
2022-08-29T07:14:27.659Z,2.88
2022-08-29T07:16:56.653Z,2.33
2022-08-29T07:19:24.971Z,2.80
2022-08-29T07:21:54.294Z,2.33
2022-08-29T07:24:26.373Z,2.53
2022-08-29T07:26:56.118Z,2.50
2022-08-29T07:29:24.511Z,2.50
2022-08-29T07:31:52.781Z,2.50
2022-08-29T07:34:22.013Z,2.20
2022-08-29T07:36:50.399Z,2.35
2022-08-29T07:39:20.434Z,2.38
2022-08-29T07:41:52.455Z,2.85
2022-08-29T07:44:22.156Z,2.72
2022-08-29T07:46:50.507Z,2.23
2022-08-29T07:49:18.811Z,2.47
2022-08-29T07:51:47.927Z,2.92
2022-08-29T07:54:17.040Z,2.50
2022-08-29T07:56:46.551Z,2.75
2022-08-29T07:59:15.692Z,2.67
2022-08-29T08:01:45.831Z,2.75
2022-08-29T08:04:14.719Z,2.50
2022-08-29T08:06:44.238Z,2.45
2022-08-29T08:09:14.431Z,2.70
2022-08-29T08:11:44.050Z,2.28
2022-08-29T08:14:13.793Z,2.33
2022-08-29T08:16:44.882Z,2.30
2022-08-29T08:19:15.652Z,2.53
2022-08-29T08:21:49.779Z,2.40
2022-08-29T08:24:19.991Z,2.47
2022-08-29T08:26:49.428Z,2.47
2022-08-29T08:29:18.499Z,2.40
2022-08-29T08:31:50.915Z,2.15
2022-08-29T08:34:20.358Z,2.17
2022-08-29T08:36:48.618Z,2.30
2022-08-29T08:39:17.073Z,2.30
2022-08-29T08:41:59.136Z,2.60
2022-08-29T08:45:10.751Z,1.90
2022-08-29T08:47:46.123Z,2.30
2022-08-29T08:50:21.403Z,2.33
2022-08-29T08:52:56.334Z,2.33
2022-08-29T08:55:35.489Z,2.28
2022-08-29T08:58:13.773Z,1.92
2022-08-29T09:00:46.770Z,2.05
2022-08-29T09:03:49.142Z,2.30
2022-08-29T09:06:33.842Z,2.20
2022-08-29T09:09:14.495Z,2.50
2022-08-29T09:11:57.414Z,2.33
2022-08-29T09:14:46.221Z,1.98
2022-08-29T09:17:21.545Z,2.40
2022-08-29T09:19:52.380Z,2.75
2022-08-29T09:22:32.861Z,2.65
2022-08-29T09:25:06.099Z,2.00
2022-08-29T09:27:37.326Z,2.13
2022-08-29T09:30:11.897Z,2.80
2022-08-29T09:33:02.635Z,2.40
2022-08-29T09:38:11.213Z,2.47
2022-08-29T09:40:52.594Z,2.25
2022-08-29T09:43:27.371Z,2.90
2022-08-29T09:46:17.623Z,3.10
2022-08-29T09:48:49.075Z,2.30
2022-08-29T09:51:26.323Z,2.40
2022-08-29T09:53:56.880Z,2.15
2022-08-29T09:56:28.301Z,3.00
2022-08-29T09:59:04.890Z,3.20
2022-08-29T10:01:36.787Z,2.63
2022-08-29T10:04:08.236Z,2.80
2022-08-29T10:06:46.261Z,2.60
2022-08-29T10:09:29.293Z,2.72
2022-08-29T10:12:04.956Z,2.33
2022-08-29T10:14:38.642Z,2.78
2022-08-29T10:17:35.679Z,2.50
2022-08-29T10:20:07.032Z,2.33
2022-08-29T10:22:43.784Z,2.65
2022-08-29T10:25:20.813Z,2.42
2022-08-29T10:27:55.803Z,2.42
2022-08-29T10:30:31.072Z,11.43
2022-08-29T10:33:19.947Z,2.42
2022-08-29T10:35:56.662Z,2.47
2022-08-29T10:38:46.311Z,2.50
2022-08-29T10:41:29.330Z,2.17
2022-08-29T10:44:19.326Z,2.10
2022-08-29T10:47:19.075Z,2.00
2022-08-29T10:50:02.238Z,2.35
2022-08-29T10:52:40.282Z,2.30
2022-08-29T10:55:21.461Z,2.35
2022-08-29T10:58:12.380Z,2.55
2022-08-29T11:00:47.335Z,2.55
2022-08-29T11:03:29.968Z,2.13
2022-08-29T11:06:06.090Z,2.45
2022-08-29T11:08:41.739Z,1.92
2022-08-29T11:11:12.327Z,2.72
2022-08-29T11:16:16.605Z,2.22
2022-08-29T11:18:53.016Z,2.10
2022-08-29T11:21:31.060Z,2.20
2022-08-29T11:24:03.178Z,1.95
2022-08-29T11:26:53.049Z,2.47
2022-08-29T11:29:35.237Z,2.23
2022-08-29T11:32:10.060Z,1.98
2022-08-29T11:35:01.740Z,2.10
2022-08-29T11:38:20.354Z,1.88
2022-08-29T11:44:14.141Z,2.38
2022-08-29T11:46:49.302Z,1.92
2022-08-29T11:49:42.894Z,2.00
2022-08-29T11:52:26.677Z,1.80
2022-08-29T11:55:32.187Z,5.85
2022-08-29T11:58:22.405Z,2.67
2022-08-29T12:00:54.020Z,1.90
2022-08-29T12:03:46.807Z,1.90
2022-08-29T12:06:32.933Z,1.80
2022-08-29T12:09:17.837Z,1.85
2022-08-29T12:12:18.473Z,2.20
2022-08-29T12:14:49.254Z,2.60
2022-08-29T12:18:01.309Z,2.28
2022-08-29T12:20:42.501Z,1.95
2022-08-29T12:23:24.473Z,1.92
2022-08-29T12:28:49.325Z,2.17
2022-08-29T12:31:51.748Z,2.30
2022-08-29T12:34:44.298Z,2.00
2022-08-29T12:40:40.164Z,2.30
2022-08-29T12:43:39.774Z,2.10
2022-08-29T12:46:23.499Z,2.20
2022-08-29T12:48:58.266Z,1.80
2022-08-29T12:51:38.510Z,2.63
2022-08-29T12:54:08.902Z,2.10
2022-08-29T12:56:49.947Z,1.80
2022-08-29T12:59:20.561Z,1.98
2022-08-29T13:04:25.701Z,1.70
2022-08-29T13:07:06.865Z,1.80
2022-08-29T13:09:41.283Z,3.15
2022-08-29T13:12:18.426Z,2.40
2022-08-29T13:14:54.594Z,3.00
2022-08-29T13:17:26.677Z,2.80
2022-08-29T13:20:49.210Z,3.38
2022-08-29T13:23:26.716Z,3.40
2022-08-29T13:25:59.786Z,2.05
2022-08-29T13:28:36.750Z,3.00
2022-08-29T13:31:31.455Z,3.25
2022-08-29T13:34:20.908Z,2.35
2022-08-29T13:37:00.105Z,2.30
2022-08-29T13:39:41.168Z,2.17
2022-08-29T13:42:32.686Z,2.40
2022-08-29T13:45:15.613Z,2.58
2022-08-29T13:48:18.441Z,2.60
2022-08-29T13:53:20.446Z,2.08
2022-08-29T13:55:50.081Z,2.38
2022-08-29T13:58:22.271Z,2.07
2022-08-29T14:00:51.123Z,1.83
2022-08-29T14:03:19.824Z,2.00
2022-08-29T14:05:48.310Z,1.90
2022-08-29T14:08:16.917Z,2.00
2022-08-29T14:10:45.409Z,2.00
2022-08-29T14:13:15.019Z,1.77
2022-08-29T14:15:43.425Z,1.97
2022-08-29T14:18:11.810Z,2.05
2022-08-29T14:20:40.358Z,1.70
2022-08-29T14:23:08.625Z,2.10
2022-08-29T14:25:37.012Z,1.80
2022-08-29T14:28:05.940Z,2.10
2022-08-29T14:30:35.702Z,2.10
2022-08-29T14:33:04.022Z,1.90
2022-08-29T14:35:33.403Z,1.65
2022-08-29T14:38:04.942Z,1.63
2022-08-29T14:40:38.830Z,1.60
2022-08-29T14:43:08.819Z,2.28
2022-08-29T14:45:39.208Z,2.05
2022-08-29T14:48:07.739Z,2.00
2022-08-29T14:50:36.205Z,1.90
2022-08-29T14:53:05.239Z,1.70
2022-08-29T14:55:33.727Z,1.60
2022-08-29T14:58:02.047Z,1.85
2022-08-29T15:00:34.153Z,1.77
2022-08-29T15:03:03.929Z,1.80
2022-08-29T15:05:32.729Z,1.80
2022-08-29T15:08:06.200Z,1.63
2022-08-29T15:10:35.040Z,2.08
2022-08-29T15:13:05.229Z,1.70
2022-08-29T15:15:34.113Z,1.58
2022-08-29T15:18:06.469Z,2.15
2022-08-29T15:20:37.998Z,1.83
2022-08-29T15:23:07.675Z,1.80
2022-08-29T15:25:36.263Z,1.60
2022-08-29T15:28:05.630Z,1.75
2022-08-29T15:30:34.613Z,1.98
2022-08-29T15:33:04.716Z,1.63
2022-08-29T15:35:33.841Z,1.77
2022-08-29T15:38:02.163Z,1.85
2022-08-29T15:40:30.613Z,1.70
2022-08-29T15:42:58.895Z,1.80
2022-08-29T15:45:27.243Z,1.60
2022-08-29T15:47:55.526Z,1.75
2022-08-29T15:52:56.311Z,2.00
2022-08-29T15:55:24.892Z,1.50
2022-08-29T15:57:53.332Z,1.63
2022-08-29T16:00:30.500Z,1.65
2022-08-29T16:03:02.725Z,2.55
2022-08-29T16:05:34.467Z,1.75
2022-08-29T16:08:03.327Z,1.80
2022-08-29T16:10:32.794Z,2.15
2022-08-29T16:13:01.431Z,1.70
2022-08-29T16:15:31.339Z,1.65
2022-08-29T16:18:00.451Z,1.75
2022-08-29T16:20:29.939Z,1.70
2022-08-29T16:23:00.401Z,1.50
2022-08-29T16:25:31.073Z,1.60
2022-08-29T16:28:00.493Z,1.60
2022-08-29T16:30:29.573Z,2.45
2022-08-29T16:32:58.802Z,1.90
2022-08-29T16:35:27.647Z,1.70
2022-08-29T16:38:02.460Z,1.83
2022-08-29T16:40:33.583Z,1.60
2022-08-29T16:43:02.918Z,1.95
2022-08-29T16:45:32.026Z,1.75
2022-08-29T16:48:00.710Z,1.73
2022-08-29T16:50:30.195Z,1.50
2022-08-29T16:52:58.652Z,2.15
2022-08-29T16:55:28.833Z,1.80
2022-08-29T16:58:17.069Z,1.63
2022-08-29T17:00:46.370Z,2.00
2022-08-29T17:03:19.430Z,4.78
2022-08-29T17:05:50.080Z,4.93
2022-08-29T17:08:17.906Z,3.72
2022-08-29T17:10:45.498Z,4.20
2022-08-29T17:13:14.579Z,4.10
2022-08-29T17:15:42.123Z,4.07
2022-08-29T17:18:10.591Z,4.80
2022-08-29T17:20:41.292Z,4.47
2022-08-29T17:23:12.643Z,4.55
2022-08-29T17:25:41.325Z,4.53
2022-08-29T17:28:18.538Z,5.07
2022-08-29T17:30:49.232Z,5.07
2022-08-29T17:33:18.329Z,4.25
2022-08-29T17:35:47.473Z,5.10
2022-08-29T17:38:16.187Z,4.97
2022-08-29T17:40:44.828Z,4.80
2022-08-29T17:43:14.064Z,4.68
2022-08-29T17:45:42.885Z,4.50
2022-08-29T17:48:12.871Z,4.00
2022-08-29T17:50:41.890Z,4.20
2022-08-29T17:53:10.325Z,4.40
2022-08-29T17:55:38.852Z,4.18
2022-08-29T17:58:07.282Z,4.35
2022-08-29T18:00:36.252Z,4.10
2022-08-29T18:03:05.273Z,4.43
2022-08-29T18:05:35.068Z,4.20
2022-08-29T18:08:03.944Z,4.57
2022-08-29T18:10:32.561Z,4.40
2022-08-29T18:13:00.879Z,4.13
2022-08-29T18:15:29.535Z,4.78
2022-08-29T18:18:04.063Z,4.30
2022-08-29T18:20:33.837Z,4.72
2022-08-29T18:23:02.290Z,4.60
2022-08-29T18:25:30.610Z,4.38
2022-08-29T18:27:59.175Z,4.60
2022-08-29T18:30:27.817Z,3.88
2022-08-29T18:32:56.246Z,4.50
2022-08-29T18:35:24.748Z,4.32
2022-08-29T18:37:54.430Z,4.82
2022-08-29T18:40:23.299Z,4.73
2022-08-29T18:42:52.601Z,4.25
2022-08-29T18:45:21.236Z,4.70
2022-08-29T18:47:49.743Z,4.38
2022-08-29T18:50:36.554Z,4.78
2022-08-29T18:53:10.784Z,4.68
2022-08-29T18:55:40.182Z,4.72
2022-08-29T18:58:08.952Z,4.85
2022-08-29T19:00:38.830Z,4.70
2022-08-29T19:03:08.030Z,4.38
2022-08-29T19:05:39.065Z,4.63
2022-08-29T19:08:11.640Z,5.00
2022-08-29T19:10:40.130Z,4.88
2022-08-29T19:13:09.082Z,4.65
2022-08-29T19:15:41.551Z,4.85
2022-08-29T19:18:11.806Z,4.93
2022-08-29T19:20:57.786Z,4.38
2022-08-29T19:23:27.692Z,5.20
2022-08-29T19:25:56.294Z,5.43
2022-08-29T19:28:25.633Z,4.95
2022-08-29T19:30:54.735Z,4.78
2022-08-29T19:33:22.996Z,5.43
2022-08-29T19:35:53.612Z,5.15
2022-08-29T19:40:55.671Z,5.80
2022-08-29T19:43:27.199Z,5.63
2022-08-29T19:45:55.966Z,5.32
2022-08-29T19:48:24.831Z,6.18
2022-08-29T19:50:54.181Z,5.47
2022-08-29T19:53:26.442Z,6.20
2022-08-29T19:55:57.287Z,6.60
2022-08-29T19:58:31.820Z,6.30
2022-08-29T20:01:02.643Z,6.03
2022-08-29T20:03:33.129Z,5.63
2022-08-29T20:06:06.137Z,5.53
2022-08-29T20:08:36.814Z,6.10
2022-08-29T20:11:06.889Z,6.17
2022-08-29T20:13:36.357Z,6.47
2022-08-29T20:16:12.249Z,6.65
2022-08-29T20:18:42.333Z,5.57
2022-08-29T20:21:13.884Z,5.80
2022-08-29T20:23:49.260Z,6.00
2022-08-29T20:26:21.926Z,6.70
2022-08-29T20:28:52.506Z,5.88
2022-08-29T20:33:50.087Z,6.88
2022-08-29T20:36:38.809Z,6.43
2022-08-29T20:39:10.435Z,6.65
2022-08-29T20:41:40.414Z,6.38
2022-08-29T20:44:10.137Z,6.60
2022-08-29T20:46:41.315Z,6.13
2022-08-29T20:49:10.648Z,6.30
2022-08-29T20:51:40.376Z,6.38
2022-08-29T20:54:08.666Z,7.15
2022-08-29T20:56:37.000Z,6.63
2022-08-29T20:59:07.123Z,6.13
2022-08-29T21:01:36.243Z,6.90
2022-08-29T21:04:23.788Z,6.75
2022-08-29T21:06:55.729Z,6.38
2022-08-29T21:09:24.343Z,7.05
2022-08-29T21:11:53.154Z,6.53
2022-08-29T21:14:23.483Z,6.90
2022-08-29T21:16:52.034Z,5.70
2022-08-29T21:19:20.676Z,6.53
2022-08-29T21:21:51.130Z,6.47
2022-08-29T21:24:20.141Z,6.40
2022-08-29T21:26:49.668Z,6.10
2022-08-29T21:29:20.135Z,6.43
2022-08-29T21:31:51.348Z,6.35
2022-08-29T21:34:22.629Z,6.55
2022-08-29T21:36:51.183Z,6.47
2022-08-29T21:39:28.236Z,6.43
2022-08-29T21:42:01.631Z,6.22
2022-08-29T21:44:31.472Z,6.60
2022-08-29T21:47:01.357Z,6.70
2022-08-29T21:49:31.336Z,7.28
2022-08-29T21:52:00.887Z,6.60
2022-08-29T21:54:29.448Z,5.97
2022-08-29T21:56:57.846Z,6.38
2022-08-29T21:59:27.944Z,6.65
2022-08-29T22:01:56.627Z,6.72
2022-08-29T22:04:28.267Z,6.20
2022-08-29T22:06:59.519Z,6.38
2022-08-29T22:09:29.318Z,6.57
2022-08-29T22:11:58.106Z,6.38
2022-08-29T22:14:47.846Z,6.45
2022-08-29T22:17:16.338Z,6.47
2022-08-29T22:19:47.412Z,6.75
2022-08-29T22:22:15.781Z,7.30
2022-08-29T22:24:44.065Z,6.28
2022-08-29T22:27:12.332Z,6.72
2022-08-29T22:29:40.583Z,7.10
2022-08-29T22:32:09.332Z,7.10
2022-08-29T22:34:37.752Z,6.22
2022-08-29T22:37:07.489Z,7.28
2022-08-29T22:39:35.858Z,6.13
2022-08-29T22:42:04.248Z,6.85
2022-08-29T22:44:59.612Z,7.38
2022-08-29T22:47:20.855Z,6.88
2022-08-29T22:49:49.144Z,6.30
2022-08-29T22:52:18.921Z,7.43
2022-08-29T22:54:47.826Z,6.57
2022-08-29T22:57:19.107Z,6.63
2022-08-29T22:59:49.267Z,6.22
2022-08-29T23:02:19.737Z,7.00
2022-08-29T23:04:50.559Z,7.43
2022-08-29T23:07:20.498Z,6.60
2022-08-29T23:09:48.877Z,6.25
2022-08-29T23:12:17.811Z,6.90
2022-08-29T23:14:47.284Z,6.43
2022-08-29T23:17:17.188Z,6.13
2022-08-29T23:19:46.241Z,6.07
2022-08-29T23:22:19.590Z,6.38
2022-08-29T23:24:58.187Z,6.70
2022-08-29T23:27:28.827Z,6.40
2022-08-29T23:29:57.502Z,6.28
2022-08-29T23:32:26.098Z,6.50
2022-08-29T23:34:54.922Z,6.18
2022-08-29T23:37:25.128Z,5.85
2022-08-29T23:39:53.519Z,6.50
2022-08-29T23:42:22.117Z,6.05
2022-08-29T23:44:50.613Z,5.88
2022-08-29T23:47:19.525Z,6.07
2022-08-29T23:49:47.883Z,6.13
2022-08-29T23:52:16.191Z,6.32
2022-08-29T23:54:45.841Z,6.35
2022-08-29T23:57:14.191Z,5.80
2022-08-29T23:59:59.959Z,6.80
